Time,TemperatureF,DewpointF,PressureIn,WindDirection,WindDirectionDegrees,WindSpeedMPH,WindSpeedGustMPH,Humidity,HourlyPrecipIn,Conditions,Clouds,dailyrainin,SoftwareType,DateUTC
2013-02-12 00:11:00,31.3,29.0,29.73,WSW,250,13.0,-999.0,91,-99.99,,,0.00,weatherlink.com 1.10,2013-02-12 05:11:00,
2013-02-12 00:26:00,31.1,29.0,29.72,SW,229,12.0,-999.0,92,-99.99,,,0.00,weatherlink.com 1.10,2013-02-12 05:26:00,
2013-02-12 00:41:00,31.0,29.0,29.72,SW,231,9.0,-999.0,92,-99.99,,,0.00,weatherlink.com 1.10,2013-02-12 05:41:00,
2013-02-12 00:56:00,30.9,29.0,29.72,SW,225,15.0,-999.0,93,-99.99,,,0.00,weatherlink.com 1.10,2013-02-12 05:56:00,
2013-02-12 01:11:00,31.0,29.0,29.72,WNW,284,6.0,-999.0,93,-99.99,,,0.00,weatherlink.com 1.10,2013-02-12 06:11:00,
2013-02-12 01:26:00,30.9,29.0,29.71,SW,230,4.0,-999.0,93,-99.99,,,0.00,weatherlink.com 1.10,2013-02-12 06:26:00,
2013-02-12 01:41:00,30.8,29.0,29.72,SW,217,5.0,-999.0,93,-99.99,,,0.00,weatherlink.com 1.10,2013-02-12 06:41:00,
2013-02-12 01:56:00,30.8,29.0,29.72,WSW,244,8.0,-999.0,93,-99.99,,,0.00,weatherlink.com 1.10,2013-02-12 06:56:00,
2013-02-12 02:11:00,30.8,29.0,29.73,West,265,5.0,-999.0,93,-99.99,,,0.00,weatherlink.com 1.10,2013-02-12 07:11:00,
2013-02-12 02:26:00,30.7,29.0,29.73,SW,229,5.0,-999.0,93,-99.99,,,0.00,weatherlink.com 1.10,2013-02-12 07:26:00,
2013-02-12 02:41:00,30.7,29.0,29.74,SW,219,4.0,-999.0,93,-99.99,,,0.00,weatherlink.com 1.10,2013-02-12 07:41:00,
2013-02-12 02:56:00,30.7,29.0,29.74,WSW,246,5.0,-999.0,93,-99.99,,,0.00,weatherlink.com 1.10,2013-02-12 07:56:00,
2013-02-12 03:11:00,30.6,29.0,29.75,SW,219,4.0,-999.0,93,-99.99,,,0.00,weatherlink.com 1.10,2013-02-12 08:11:00,
2013-02-12 03:26:00,30.7,29.0,29.75,SW,232,12.0,-999.0,93,-99.99,,,0.00,weatherlink.com 1.10,2013-02-12 08:26:00,
2013-02-12 03:41:00,30.8,29.0,29.76,WSW,256,5.0,-999.0,93,-99.99,,,0.00,weatherlink.com 1.10,2013-02-12 08:41:00,
2013-02-12 03:56:00,30.8,29.0,29.76,NW,318,10.0,-999.0,92,-99.99,,,0.00,weatherlink.com 1.10,2013-02-12 08:56:00,
2013-02-12 04:11:00,31.0,29.0,29.76,WSW,251,8.0,-999.0,92,-99.99,,,0.00,weatherlink.com 1.10,2013-02-12 09:11:00,
2013-02-12 04:26:00,31.0,29.0,29.77,SW,232,7.0,-999.0,91,-99.99,,,0.00,weatherlink.com 1.10,2013-02-12 09:26:00,
2013-02-12 04:41:00,31.1,29.0,29.78,WSW,250,12.0,-999.0,91,-99.99,,,0.00,weatherlink.com 1.10,2013-02-12 09:41:00,
2013-02-12 04:56:00,31.1,29.0,29.79,SSW,207,7.0,-999.0,90,-99.99,,,0.00,weatherlink.com 1.10,2013-02-12 09:56:00,
2013-02-12 05:11:00,31.0,29.0,29.80,SW,223,9.0,-999.0,91,-99.99,,,0.00,weatherlink.com 1.10,2013-02-12 10:11:00,
2013-02-12 05:26:00,30.8,29.0,29.80,SW,235,5.0,-999.0,91,-99.99,,,0.00,weatherlink.com 1.10,2013-02-12 10:26:00,
2013-02-12 05:41:00,30.8,29.0,29.80,SW,234,6.0,-999.0,91,-99.99,,,0.00,weatherlink.com 1.10,2013-02-12 10:41:00,
2013-02-12 05:56:00,30.9,29.0,29.81,SW,220,6.0,-999.0,91,-99.99,,,0.00,weatherlink.com 1.10,2013-02-12 10:56:00,
2013-02-12 06:11:00,30.9,29.0,29.81,West,269,13.0,-999.0,91,-99.99,,,0.00,weatherlink.com 1.10,2013-02-12 11:11:00,
2013-02-12 06:26:00,31.0,29.0,29.82,West,260,8.0,-999.0,90,-99.99,,,0.00,weatherlink.com 1.10,2013-02-12 11:26:00,
2013-02-12 06:41:00,31.0,29.0,29.82,WSW,250,1.0,-999.0,90,-99.99,,,0.00,weatherlink.com 1.10,2013-02-12 11:41:00,
2013-02-12 06:56:00,31.1,28.0,29.83,WSW,237,6.0,-999.0,89,-99.99,,,0.00,weatherlink.com 1.10,2013-02-12 11:56:00,
2013-02-12 07:11:00,31.2,28.0,29.84,SW,227,18.0,-999.0,88,-99.99,,,0.00,weatherlink.com 1.10,2013-02-12 12:11:00,
2013-02-12 07:26:00,31.2,28.0,29.84,WSW,250,6.0,-999.0,88,-99.99,,,0.00,weatherlink.com 1.10,2013-02-12 12:26:00,
2013-02-12 07:41:00,31.2,28.0,29.86,WSW,250,14.0,-999.0,87,-99.99,,,0.00,weatherlink.com 1.10,2013-02-12 12:41:00,
2013-02-12 07:56:00,31.3,28.0,29.86,WSW,237,8.0,-999.0,87,-99.99,,,0.00,weatherlink.com 1.10,2013-02-12 12:56:00,
2013-02-12 08:11:00,31.4,28.0,29.87,WSW,250,5.0,-999.0,86,-99.99,,,0.00,weatherlink.com 1.10,2013-02-12 13:11:00,
2013-02-12 08:26:00,31.5,28.0,29.88,SSW,211,7.0,-999.0,86,-99.99,,,0.00,weatherlink.com 1.10,2013-02-12 13:26:00,
2013-02-12 08:41:00,31.5,28.0,29.89,WSW,239,9.0,-999.0,85,-99.99,,,0.00,weatherlink.com 1.10,2013-02-12 13:41:00,
2013-02-12 08:56:00,31.6,28.0,29.89,SW,225,4.0,-999.0,85,-99.99,,,0.00,weatherlink.com 1.10,2013-02-12 13:56:00,
2013-02-12 09:11:00,31.8,28.0,29.89,West,267,3.0,-999.0,84,-99.99,,,0.00,weatherlink.com 1.10,2013-02-12 14:11:00,
2013-02-12 09:26:00,32.0,27.0,29.90,WNW,285,12.0,-999.0,83,-99.99,,,0.00,weatherlink.com 1.10,2013-02-12 14:26:00,
2013-02-12 09:41:00,32.0,27.0,29.90,WSW,242,2.0,-999.0,82,-99.99,,,0.00,weatherlink.com 1.10,2013-02-12 14:41:00,
2013-02-12 09:56:00,32.4,28.0,29.90,SW,228,9.0,-999.0,82,-99.99,,,0.00,weatherlink.com 1.10,2013-02-12 14:56:00,
2013-02-12 10:11:00,32.6,27.0,29.91,SSW,206,8.0,-999.0,81,-99.99,,,0.00,weatherlink.com 1.10,2013-02-12 15:11:00,
2013-02-12 10:26:00,33.1,28.0,29.91,SW,230,3.0,-999.0,80,-99.99,,,0.00,weatherlink.com 1.10,2013-02-12 15:26:00,
2013-02-12 10:41:00,32.8,27.0,29.91,WSW,254,4.0,-999.0,80,-99.99,,,0.00,weatherlink.com 1.10,2013-02-12 15:41:00,
2013-02-12 10:56:00,32.7,27.0,29.91,SW,227,7.0,-999.0,80,-99.99,,,0.00,weatherlink.com 1.10,2013-02-12 15:56:00,
2013-02-12 11:11:00,32.7,27.0,29.92,SW,225,10.0,-999.0,80,-99.99,,,0.00,weatherlink.com 1.10,2013-02-12 16:11:00,
2013-02-12 11:26:00,32.5,27.0,29.92,SW,217,10.0,-999.0,80,-99.99,,,0.00,weatherlink.com 1.10,2013-02-12 16:26:00,
2013-02-12 11:41:00,32.5,27.0,29.92,SSW,200,3.0,-999.0,81,-99.99,,,0.00,weatherlink.com 1.10,2013-02-12 16:41:00,
2013-02-12 11:56:00,32.7,27.0,29.93,WSW,254,5.0,-999.0,80,-99.99,,,0.00,weatherlink.com 1.10,2013-02-12 16:56:00,
2013-02-12 12:11:00,32.9,27.0,29.93,WSW,256,4.0,-999.0,80,-99.99,,,0.00,weatherlink.com 1.10,2013-02-12 17:11:00,
2013-02-12 12:26:00,32.8,27.0,29.93,WSW,239,6.0,-999.0,79,-99.99,,,0.00,weatherlink.com 1.10,2013-02-12 17:26:00,
2013-02-12 12:41:00,32.8,27.0,29.93,SW,219,5.0,-999.0,78,-99.99,,,0.00,weatherlink.com 1.10,2013-02-12 17:41:00,
2013-02-12 12:56:00,32.9,27.0,29.93,WSW,254,5.0,-999.0,78,-99.99,,,0.00,weatherlink.com 1.10,2013-02-12 17:56:00,
2013-02-12 13:11:00,32.6,26.0,29.92,West,269,6.0,-999.0,78,-99.99,,,0.00,weatherlink.com 1.10,2013-02-12 18:11:00,
2013-02-12 13:26:00,33.1,27.0,29.92,SW,232,5.0,-999.0,78,-99.99,,,0.00,weatherlink.com 1.10,2013-02-12 18:26:00,
2013-02-12 13:41:00,33.7,27.0,29.91,West,264,12.0,-999.0,76,-99.99,,,0.00,weatherlink.com 1.10,2013-02-12 18:41:00,
2013-02-12 13:56:00,33.1,26.0,29.91,West,260,5.0,-999.0,76,-99.99,,,0.00,weatherlink.com 1.10,2013-02-12 18:56:00,
2013-02-12 14:11:00,32.6,26.0,29.92,WSW,245,3.0,-999.0,76,-99.99,,,0.00,weatherlink.com 1.10,2013-02-12 19:11:00,
2013-02-12 14:26:00,32.4,26.0,29.92,WNW,298,3.0,-999.0,76,-99.99,,,0.00,weatherlink.com 1.10,2013-02-12 19:26:00,
2013-02-12 14:41:00,32.8,26.0,29.91,SW,233,2.0,-999.0,75,-99.99,,,0.00,weatherlink.com 1.10,2013-02-12 19:41:00,
2013-02-12 14:56:00,33.4,26.0,29.91,WSW,244,6.0,-999.0,73,-99.99,,,0.00,weatherlink.com 1.10,2013-02-12 19:56:00,
2013-02-12 15:11:00,32.5,25.0,29.91,West,259,3.0,-999.0,73,-99.99,,,0.00,weatherlink.com 1.10,2013-02-12 20:11:00,
2013-02-12 15:26:00,31.8,25.0,29.91,West,277,4.0,-999.0,75,-99.99,,,0.00,weatherlink.com 1.10,2013-02-12 20:26:00,
2013-02-12 15:41:00,31.3,25.0,29.90,WNW,289,9.0,-999.0,77,-99.99,,,0.00,weatherlink.com 1.10,2013-02-12 20:41:00,
2013-02-12 15:56:00,31.2,25.0,29.90,SW,235,3.0,-999.0,78,-99.99,,,0.00,weatherlink.com 1.10,2013-02-12 20:56:00,
2013-02-12 16:11:00,31.2,26.0,29.90,SW,232,6.0,-999.0,81,-99.99,,,0.00,weatherlink.com 1.10,2013-02-12 21:11:00,
2013-02-12 16:26:00,30.3,26.0,29.91,WSW,241,4.0,-999.0,83,-99.99,,,0.00,weatherlink.com 1.10,2013-02-12 21:26:00,
2013-02-12 16:41:00,30.1,25.0,29.91,SW,233,9.0,-999.0,82,-99.99,,,0.00,weatherlink.com 1.10,2013-02-12 21:41:00,
2013-02-12 16:56:00,30.1,25.0,29.91,SW,232,7.0,-999.0,81,-99.99,,,0.00,weatherlink.com 1.10,2013-02-12 21:56:00,
2013-02-12 17:26:00,29.9,25.0,29.93,West,265,4.0,-999.0,83,-99.99,,,0.00,weatherlink.com 1.10,2013-02-12 22:26:00,
2013-02-12 17:41:00,29.8,26.0,29.93,WSW,241,4.0,-999.0,84,-99.99,,,0.00,weatherlink.com 1.10,2013-02-12 22:41:00,
2013-02-12 18:11:00,29.7,25.0,29.94,WSW,249,4.0,-999.0,83,-99.99,,,0.00,weatherlink.com 1.10,2013-02-12 23:11:00,
2013-02-12 18:26:00,29.8,25.0,29.95,WSW,241,4.0,-999.0,83,-99.99,,,0.00,weatherlink.com 1.10,2013-02-12 23:26:00,
2013-02-12 18:41:00,29.9,25.0,29.95,SW,227,1.0,-999.0,82,-99.99,,,0.00,weatherlink.com 1.10,2013-02-12 23:41:00,
2013-02-12 18:56:00,29.9,25.0,29.96,WSW,238,5.0,-999.0,82,-99.99,,,0.00,weatherlink.com 1.10,2013-02-12 23:56:00,
2013-02-12 19:11:00,29.9,25.0,29.96,WSW,242,6.0,-999.0,81,-99.99,,,0.00,weatherlink.com 1.10,2013-02-13 00:11:00,
2013-02-12 19:26:00,30.0,25.0,29.96,SW,232,5.0,-999.0,81,-99.99,,,0.00,weatherlink.com 1.10,2013-02-13 00:26:00,
2013-02-12 19:42:00,30.0,25.0,29.96,SW,234,3.0,-999.0,81,-99.99,,,0.00,weatherlink.com 1.10,2013-02-13 00:42:00,
2013-02-12 19:56:00,30.1,25.0,29.97,West,260,4.0,-999.0,80,-99.99,,,0.00,weatherlink.com 1.10,2013-02-13 00:56:00,
2013-02-12 20:11:00,30.3,24.0,29.97,SW,218,3.0,-999.0,78,-99.99,,,0.00,weatherlink.com 1.10,2013-02-13 01:11:00,
2013-02-12 20:27:00,30.4,24.0,29.97,SW,236,5.0,-999.0,78,-99.99,,,0.00,weatherlink.com 1.10,2013-02-13 01:27:00,
2013-02-12 20:42:00,30.4,24.0,29.96,SW,227,5.0,-999.0,78,-99.99,,,0.00,weatherlink.com 1.10,2013-02-13 01:42:00,
2013-02-12 20:57:00,30.3,25.0,29.96,SW,230,5.0,-999.0,79,-99.99,,,0.00,weatherlink.com 1.10,2013-02-13 01:57:00,
2013-02-12 21:12:00,30.2,25.0,29.96,SW,227,4.0,-999.0,80,-99.99,,,0.00,weatherlink.com 1.10,2013-02-13 02:12:00,
2013-02-12 21:27:00,30.1,25.0,29.96,WSW,252,1.0,-999.0,81,-99.99,,,0.00,weatherlink.com 1.10,2013-02-13 02:27:00,
2013-02-12 21:42:00,29.9,25.0,29.95,West,265,3.0,-999.0,83,-99.99,,,0.00,weatherlink.com 1.10,2013-02-13 02:42:00,
2013-02-12 21:57:00,29.8,26.0,29.94,SW,227,1.0,-999.0,84,-99.99,,,0.00,weatherlink.com 1.10,2013-02-13 02:57:00,
2013-02-12 22:12:00,29.8,26.0,29.93,WSW,257,0.0,-999.0,85,-99.99,,,0.00,weatherlink.com 1.10,2013-02-13 03:12:00,
2013-02-12 22:27:00,29.7,26.0,29.93,West,261,5.0,-999.0,85,-99.99,,,0.00,weatherlink.com 1.10,2013-02-13 03:27:00,
2013-02-12 22:42:00,29.7,26.0,29.93,WNW,290,1.0,-999.0,85,-99.99,,,0.00,weatherlink.com 1.10,2013-02-13 03:42:00,
2013-02-12 22:57:00,29.6,26.0,29.93,WSW,240,0.0,-999.0,85,-99.99,,,0.00,weatherlink.com 1.10,2013-02-13 03:57:00,
2013-02-12 23:12:00,29.7,25.0,29.93,WSW,241,0.0,-999.0,84,-99.99,,,0.00,weatherlink.com 1.10,2013-02-13 04:12:00,
2013-02-12 23:27:00,29.7,25.0,29.92,West,261,0.0,-999.0,83,-99.99,,,0.00,weatherlink.com 1.10,2013-02-13 04:27:00,
2013-02-12 23:42:00,29.7,25.0,29.92,WSW,258,0.0,-999.0,84,-99.99,,,0.00,weatherlink.com 1.10,2013-02-13 04:42:00,
2013-02-12 23:57:00,29.6,25.0,29.92,SW,221,1.0,-999.0,84,-99.99,,,0.00,weatherlink.com 1.10,2013-02-13 04:57:00,